sensor_id;sensor_type;location;lat;lon;timestamp;pressure;altitude;pressure_sealevel;temperature
10598;BMP180;5346;48.766;8.674;2023-02-15T00:02:33;95137.00;;;5.10
10598;BMP180;5346;48.766;8.674;2023-02-15T00:05:00;95147.00;;;4.80
10598;BMP180;5346;48.766;8.674;2023-02-15T00:07:34;95135.00;;;4.40
10598;BMP180;5346;48.766;8.674;2023-02-15T00:10:01;95138.00;;;4.20
10598;BMP180;5346;48.766;8.674;2023-02-15T00:12:35;95138.00;;;4.20
10598;BMP180;5346;48.766;8.674;2023-02-15T00:15:09;95131.00;;;4.60
10598;BMP180;5346;48.766;8.674;2023-02-15T00:17:36;95126.00;;;4.50
10598;BMP180;5346;48.766;8.674;2023-02-15T00:20:10;95129.00;;;4.60
10598;BMP180;5346;48.766;8.674;2023-02-15T00:22:47;95121.00;;;4.70
10598;BMP180;5346;48.766;8.674;2023-02-15T00:25:21;95121.00;;;4.90
10598;BMP180;5346;48.766;8.674;2023-02-15T00:27:55;95119.00;;;5.10
10598;BMP180;5346;48.766;8.674;2023-02-15T00:30:29;95127.00;;;5.10
10598;BMP180;5346;48.766;8.674;2023-02-15T00:32:57;95122.00;;;5.00
10598;BMP180;5346;48.766;8.674;2023-02-15T00:35:31;95126.00;;;4.70
10598;BMP180;5346;48.766;8.674;2023-02-15T00:37:58;95115.00;;;4.50
10598;BMP180;5346;48.766;8.674;2023-02-15T00:40:32;95113.00;;;5.00
10598;BMP180;5346;48.766;8.674;2023-02-15T00:43:00;95114.00;;;5.00
10598;BMP180;5346;48.766;8.674;2023-02-15T00:45:34;95115.00;;;4.70
10598;BMP180;5346;48.766;8.674;2023-02-15T00:48:08;95118.00;;;4.60
10598;BMP180;5346;48.766;8.674;2023-02-15T00:50:45;95106.00;;;5.00
10598;BMP180;5346;48.766;8.674;2023-02-15T00:53:20;95114.00;;;5.20
10598;BMP180;5346;48.766;8.674;2023-02-15T00:55:48;95117.00;;;4.90
10598;BMP180;5346;48.766;8.674;2023-02-15T00:58:22;95107.00;;;5.30
10598;BMP180;5346;48.766;8.674;2023-02-15T01:00:50;95110.00;;;5.00
10598;BMP180;5346;48.766;8.674;2023-02-15T01:03:24;95121.00;;;4.70
10598;BMP180;5346;48.766;8.674;2023-02-15T01:05:58;95107.00;;;4.50
10598;BMP180;5346;48.766;8.674;2023-02-15T01:08:32;95107.00;;;4.50
10598;BMP180;5346;48.766;8.674;2023-02-15T01:11:09;95104.00;;;4.70
10598;BMP180;5346;48.766;8.674;2023-02-15T01:13:43;95105.00;;;4.70
10598;BMP180;5346;48.766;8.674;2023-02-15T01:16:11;95107.00;;;4.50
10598;BMP180;5346;48.766;8.674;2023-02-15T01:18:45;95110.00;;;4.30
10598;BMP180;5346;48.766;8.674;2023-02-15T01:21:25;95100.00;;;4.30
10598;BMP180;5346;48.766;8.674;2023-02-15T01:24:02;95103.00;;;4.40
10598;BMP180;5346;48.766;8.674;2023-02-15T01:26:29;95100.00;;;4.80
10598;BMP180;5346;48.766;8.674;2023-02-15T01:29:05;95105.00;;;5.50
10598;BMP180;5346;48.766;8.674;2023-02-15T01:31:39;95105.00;;;5.50
10598;BMP180;5346;48.766;8.674;2023-02-15T01:34:07;95103.00;;;5.30
10598;BMP180;5346;48.766;8.674;2023-02-15T01:36:40;95096.00;;;4.90
10598;BMP180;5346;48.766;8.674;2023-02-15T01:39:14;95105.00;;;4.70
10598;BMP180;5346;48.766;8.674;2023-02-15T01:41:49;95099.00;;;4.60
10598;BMP180;5346;48.766;8.674;2023-02-15T01:44:47;95099.00;;;4.70
10598;BMP180;5346;48.766;8.674;2023-02-15T01:47:43;95088.00;;;5.30
10598;BMP180;5346;48.766;8.674;2023-02-15T01:51:00;95097.00;;;5.30
10598;BMP180;5346;48.766;8.674;2023-02-15T01:53:34;95093.00;;;5.00
10598;BMP180;5346;48.766;8.674;2023-02-15T01:56:15;95095.00;;;4.70
10598;BMP180;5346;48.766;8.674;2023-02-15T01:58:54;95091.00;;;4.70
10598;BMP180;5346;48.766;8.674;2023-02-15T02:01:23;95088.00;;;5.10
10598;BMP180;5346;48.766;8.674;2023-02-15T02:04:29;95085.00;;;4.60
10598;BMP180;5346;48.766;8.674;2023-02-15T02:07:05;95082.00;;;4.50
10598;BMP180;5346;48.766;8.674;2023-02-15T02:09:33;95093.00;;;4.40
10598;BMP180;5346;48.766;8.674;2023-02-15T02:12:08;95077.00;;;4.20
10598;BMP180;5346;48.766;8.674;2023-02-15T02:14:43;95079.00;;;3.90
10598;BMP180;5346;48.766;8.674;2023-02-15T02:17:41;95076.00;;;4.20
10598;BMP180;5346;48.766;8.674;2023-02-15T02:23:51;95070.00;;;3.90
10598;BMP180;5346;48.766;8.674;2023-02-15T02:35:54;95069.00;;;4.20
10598;BMP180;5346;48.766;8.674;2023-02-15T02:41:26;95055.00;;;3.40
10598;BMP180;5346;48.766;8.674;2023-02-15T02:44:18;95071.00;;;3.30
10598;BMP180;5346;48.766;8.674;2023-02-15T02:47:07;95074.00;;;3.30
10598;BMP180;5346;48.766;8.674;2023-02-15T02:49:43;95071.00;;;3.10
10598;BMP180;5346;48.766;8.674;2023-02-15T03:03:52;95065.00;;;2.50
10598;BMP180;5346;48.766;8.674;2023-02-15T03:06:46;95065.00;;;2.60
10598;BMP180;5346;48.766;8.674;2023-02-15T03:09:23;95063.00;;;2.60
10598;BMP180;5346;48.766;8.674;2023-02-15T03:11:58;95057.00;;;2.30
10598;BMP180;5346;48.766;8.674;2023-02-15T03:14:25;95051.00;;;2.50
10598;BMP180;5346;48.766;8.674;2023-02-15T03:17:00;95066.00;;;2.70
10598;BMP180;5346;48.766;8.674;2023-02-15T03:19:31;95049.00;;;2.60
10598;BMP180;5346;48.766;8.674;2023-02-15T03:22:17;95060.00;;;2.50
10598;BMP180;5346;48.766;8.674;2023-02-15T03:25:09;95060.00;;;2.60
10598;BMP180;5346;48.766;8.674;2023-02-15T03:27:51;95060.00;;;2.30
10598;BMP180;5346;48.766;8.674;2023-02-15T03:30:28;95060.00;;;2.10
10598;BMP180;5346;48.766;8.674;2023-02-15T03:33:05;95052.00;;;2.20
10598;BMP180;5346;48.766;8.674;2023-02-15T03:35:51;95058.00;;;2.50
10598;BMP180;5346;48.766;8.674;2023-02-15T03:38:33;95068.00;;;2.20
10598;BMP180;5346;48.766;8.674;2023-02-15T03:41:09;95063.00;;;2.00
10598;BMP180;5346;48.766;8.674;2023-02-15T03:43:51;95057.00;;;2.10
10598;BMP180;5346;48.766;8.674;2023-02-15T03:49:52;95056.00;;;2.20
10598;BMP180;5346;48.766;8.674;2023-02-15T03:52:29;95063.00;;;2.30
10598;BMP180;5346;48.766;8.674;2023-02-15T03:55:04;95055.00;;;2.30
10598;BMP180;5346;48.766;8.674;2023-02-15T03:57:38;95063.00;;;2.50
10598;BMP180;5346;48.766;8.674;2023-02-15T04:00:25;95058.00;;;2.60
10598;BMP180;5346;48.766;8.674;2023-02-15T04:03:28;95051.00;;;2.70
10598;BMP180;5346;48.766;8.674;2023-02-15T04:06:19;95040.00;;;2.50
10598;BMP180;5346;48.766;8.674;2023-02-15T04:08:47;95042.00;;;2.50
10598;BMP180;5346;48.766;8.674;2023-02-15T04:11:39;95045.00;;;2.80
10598;BMP180;5346;48.766;8.674;2023-02-15T04:14:13;95052.00;;;2.80
10598;BMP180;5346;48.766;8.674;2023-02-15T04:17:07;95049.00;;;2.70
10598;BMP180;5346;48.766;8.674;2023-02-15T04:19:41;95049.00;;;2.80
10598;BMP180;5346;48.766;8.674;2023-02-15T04:22:33;95054.00;;;3.10
10598;BMP180;5346;48.766;8.674;2023-02-15T04:25:26;95046.00;;;2.90
10598;BMP180;5346;48.766;8.674;2023-02-15T04:27:55;95045.00;;;2.70
10598;BMP180;5346;48.766;8.674;2023-02-15T04:30:30;95044.00;;;2.80
10598;BMP180;5346;48.766;8.674;2023-02-15T04:32:58;95049.00;;;3.00
10598;BMP180;5346;48.766;8.674;2023-02-15T04:35:32;95049.00;;;3.10
10598;BMP180;5346;48.766;8.674;2023-02-15T04:38:00;95036.00;;;2.80
10598;BMP180;5346;48.766;8.674;2023-02-15T04:40:35;95043.00;;;2.70
10598;BMP180;5346;48.766;8.674;2023-02-15T04:43:09;95042.00;;;2.70
10598;BMP180;5346;48.766;8.674;2023-02-15T04:45:49;95041.00;;;2.70
10598;BMP180;5346;48.766;8.674;2023-02-15T04:48:26;95044.00;;;2.70
10598;BMP180;5346;48.766;8.674;2023-02-15T04:51:04;95037.00;;;2.80
10598;BMP180;5346;48.766;8.674;2023-02-15T04:53:32;95037.00;;;2.70
10598;BMP180;5346;48.766;8.674;2023-02-15T04:56:06;95029.00;;;2.70
10598;BMP180;5346;48.766;8.674;2023-02-15T04:58:33;95035.00;;;2.50
10598;BMP180;5346;48.766;8.674;2023-02-15T05:01:08;95033.00;;;2.50
10598;BMP180;5346;48.766;8.674;2023-02-15T05:03:44;95032.00;;;2.60
10598;BMP180;5346;48.766;8.674;2023-02-15T05:06:18;95028.00;;;2.50
10598;BMP180;5346;48.766;8.674;2023-02-15T05:08:52;95031.00;;;2.50
10598;BMP180;5346;48.766;8.674;2023-02-15T05:11:20;95032.00;;;2.60
10598;BMP180;5346;48.766;8.674;2023-02-15T05:13:55;95029.00;;;2.70
10598;BMP180;5346;48.766;8.674;2023-02-15T05:16:29;95026.00;;;2.90
10598;BMP180;5346;48.766;8.674;2023-02-15T05:18:57;95018.00;;;2.70
10598;BMP180;5346;48.766;8.674;2023-02-15T05:21:32;95021.00;;;2.60
10598;BMP180;5346;48.766;8.674;2023-02-15T05:23:59;95023.00;;;2.70
10598;BMP180;5346;48.766;8.674;2023-02-15T05:26:33;95027.00;;;2.70
10598;BMP180;5346;48.766;8.674;2023-02-15T05:29:29;95017.00;;;2.50
10598;BMP180;5346;48.766;8.674;2023-02-15T05:31:56;95023.00;;;2.30
10598;BMP180;5346;48.766;8.674;2023-02-15T05:34:30;95021.00;;;2.50
10598;BMP180;5346;48.766;8.674;2023-02-15T05:36:59;95022.00;;;2.60
10598;BMP180;5346;48.766;8.674;2023-02-15T05:39:34;95031.00;;;2.80
10598;BMP180;5346;48.766;8.674;2023-02-15T05:42:08;95026.00;;;2.70
10598;BMP180;5346;48.766;8.674;2023-02-15T05:44:36;95032.00;;;2.80
10598;BMP180;5346;48.766;8.674;2023-02-15T05:47:10;95020.00;;;3.00
10598;BMP180;5346;48.766;8.674;2023-02-15T05:49:37;95023.00;;;3.10
10598;BMP180;5346;48.766;8.674;2023-02-15T05:52:12;95019.00;;;3.10
10598;BMP180;5346;48.766;8.674;2023-02-15T05:54:39;95017.00;;;3.20
10598;BMP180;5346;48.766;8.674;2023-02-15T05:57:13;95022.00;;;3.30
10598;BMP180;5346;48.766;8.674;2023-02-15T05:59:44;95027.00;;;3.20
10598;BMP180;5346;48.766;8.674;2023-02-15T06:02:33;95029.00;;;3.40
10598;BMP180;5346;48.766;8.674;2023-02-15T06:05:21;95028.00;;;3.50
10598;BMP180;5346;48.766;8.674;2023-02-15T06:07:51;95031.00;;;3.40
10598;BMP180;5346;48.766;8.674;2023-02-15T06:10:25;95028.00;;;3.40
10598;BMP180;5346;48.766;8.674;2023-02-15T06:12:52;95020.00;;;3.40
10598;BMP180;5346;48.766;8.674;2023-02-15T06:15:26;95030.00;;;3.70
10598;BMP180;5346;48.766;8.674;2023-02-15T06:18:00;95037.00;;;3.60
10598;BMP180;5346;48.766;8.674;2023-02-15T06:20:38;95038.00;;;3.60
10598;BMP180;5346;48.766;8.674;2023-02-15T06:23:06;95041.00;;;3.70
10598;BMP180;5346;48.766;8.674;2023-02-15T06:25:43;95036.00;;;3.70
10598;BMP180;5346;48.766;8.674;2023-02-15T06:28:11;95043.00;;;3.80
10598;BMP180;5346;48.766;8.674;2023-02-15T06:30:45;95055.00;;;3.90
10598;BMP180;5346;48.766;8.674;2023-02-15T06:33:15;95041.00;;;3.90
10598;BMP180;5346;48.766;8.674;2023-02-15T06:35:49;95043.00;;;4.10
10598;BMP180;5346;48.766;8.674;2023-02-15T06:38:23;95047.00;;;4.00
10598;BMP180;5346;48.766;8.674;2023-02-15T06:40:57;95046.00;;;4.00
10598;BMP180;5346;48.766;8.674;2023-02-15T06:43:34;95049.00;;;4.00
10598;BMP180;5346;48.766;8.674;2023-02-15T06:46:01;95051.00;;;4.10
10598;BMP180;5346;48.766;8.674;2023-02-15T06:48:35;95059.00;;;4.20
10598;BMP180;5346;48.766;8.674;2023-02-15T06:51:10;95052.00;;;4.20
10598;BMP180;5346;48.766;8.674;2023-02-15T06:53:38;95058.00;;;4.30
10598;BMP180;5346;48.766;8.674;2023-02-15T06:56:15;95049.00;;;4.30
10598;BMP180;5346;48.766;8.674;2023-02-15T06:58:43;95058.00;;;4.50
10598;BMP180;5346;48.766;8.674;2023-02-15T07:01:19;95060.00;;;4.60
10598;BMP180;5346;48.766;8.674;2023-02-15T07:03:47;95058.00;;;4.70
10598;BMP180;5346;48.766;8.674;2023-02-15T07:06:21;95052.00;;;4.80
10598;BMP180;5346;48.766;8.674;2023-02-15T07:09:04;95058.00;;;4.80
10598;BMP180;5346;48.766;8.674;2023-02-15T07:11:31;95056.00;;;4.90
10598;BMP180;5346;48.766;8.674;2023-02-15T07:14:24;95059.00;;;5.10
10598;BMP180;5346;48.766;8.674;2023-02-15T07:16:58;95047.00;;;5.30
10598;BMP180;5346;48.766;8.674;2023-02-15T07:19:31;95050.00;;;5.50
10598;BMP180;5346;48.766;8.674;2023-02-15T07:22:05;95048.00;;;5.70
10598;BMP180;5346;48.766;8.674;2023-02-15T07:24:32;95050.00;;;5.70
10598;BMP180;5346;48.766;8.674;2023-02-15T07:27:08;95054.00;;;5.80
10598;BMP180;5346;48.766;8.674;2023-02-15T07:29:35;95051.00;;;5.80
10598;BMP180;5346;48.766;8.674;2023-02-15T07:32:09;95055.00;;;5.80
10598;BMP180;5346;48.766;8.674;2023-02-15T07:34:43;95062.00;;;5.90
10598;BMP180;5346;48.766;8.674;2023-02-15T07:37:11;95061.00;;;6.20
10598;BMP180;5346;48.766;8.674;2023-02-15T07:39:50;95063.00;;;6.40
10598;BMP180;5346;48.766;8.674;2023-02-15T07:42:18;95055.00;;;6.50
10598;BMP180;5346;48.766;8.674;2023-02-15T07:44:59;95057.00;;;6.70
10598;BMP180;5346;48.766;8.674;2023-02-15T07:47:27;95059.00;;;6.80
10598;BMP180;5346;48.766;8.674;2023-02-15T07:50:02;95064.00;;;6.90
10598;BMP180;5346;48.766;8.674;2023-02-15T07:52:29;95054.00;;;6.90
10598;BMP180;5346;48.766;8.674;2023-02-15T07:55:03;95057.00;;;7.20
10598;BMP180;5346;48.766;8.674;2023-02-15T07:57:41;95059.00;;;7.40
10598;BMP180;5346;48.766;8.674;2023-02-15T08:00:10;95061.00;;;7.80
10598;BMP180;5346;48.766;8.674;2023-02-15T08:02:55;95065.00;;;8.10
10598;BMP180;5346;48.766;8.674;2023-02-15T08:05:49;95056.00;;;8.60
10598;BMP180;5346;48.766;8.674;2023-02-15T08:08:23;95053.00;;;9.50
10598;BMP180;5346;48.766;8.674;2023-02-15T08:14:13;95044.00;;;11.00
10598;BMP180;5346;48.766;8.674;2023-02-15T08:16:49;95052.00;;;11.60
10598;BMP180;5346;48.766;8.674;2023-02-15T08:19:31;95047.00;;;11.80
10598;BMP180;5346;48.766;8.674;2023-02-15T08:22:07;95052.00;;;11.80
10598;BMP180;5346;48.766;8.674;2023-02-15T08:24:37;95050.00;;;12.30
10598;BMP180;5346;48.766;8.674;2023-02-15T08:27:17;95043.00;;;12.50
10598;BMP180;5346;48.766;8.674;2023-02-15T08:29:45;95052.00;;;12.50
10598;BMP180;5346;48.766;8.674;2023-02-15T08:32:20;95044.00;;;12.30
10598;BMP180;5346;48.766;8.674;2023-02-15T08:34:48;95052.00;;;12.20
10598;BMP180;5346;48.766;8.674;2023-02-15T08:37:28;95054.00;;;12.30
10598;BMP180;5346;48.766;8.674;2023-02-15T08:39:59;95047.00;;;12.60
10598;BMP180;5346;48.766;8.674;2023-02-15T08:42:48;95050.00;;;13.00
10598;BMP180;5346;48.766;8.674;2023-02-15T08:45:22;95046.00;;;14.10
10598;BMP180;5346;48.766;8.674;2023-02-15T08:47:53;95044.00;;;14.10
10598;BMP180;5346;48.766;8.674;2023-02-15T08:50:27;95052.00;;;14.20
10598;BMP180;5346;48.766;8.674;2023-02-15T08:53:03;95044.00;;;14.40
10598;BMP180;5346;48.766;8.674;2023-02-15T08:55:31;95044.00;;;14.70
10598;BMP180;5346;48.766;8.674;2023-02-15T08:58:11;95041.00;;;15.20
10598;BMP180;5346;48.766;8.674;2023-02-15T09:00:46;95039.00;;;15.70
10598;BMP180;5346;48.766;8.674;2023-02-15T09:03:28;95043.00;;;15.80
10598;BMP180;5346;48.766;8.674;2023-02-15T09:06:23;95039.00;;;16.00
10598;BMP180;5346;48.766;8.674;2023-02-15T09:09:00;95045.00;;;16.10
10598;BMP180;5346;48.766;8.674;2023-02-15T09:11:40;95038.00;;;16.40
10598;BMP180;5346;48.766;8.674;2023-02-15T09:14:11;95040.00;;;16.90
10598;BMP180;5346;48.766;8.674;2023-02-15T09:16:49;95036.00;;;17.00
10598;BMP180;5346;48.766;8.674;2023-02-15T09:19:29;95036.00;;;17.50
10598;BMP180;5346;48.766;8.674;2023-02-15T09:21:56;95036.00;;;17.60
10598;BMP180;5346;48.766;8.674;2023-02-15T09:24:32;95039.00;;;17.60
10598;BMP180;5346;48.766;8.674;2023-02-15T09:27:07;95030.00;;;17.30
10598;BMP180;5346;48.766;8.674;2023-02-15T09:29:41;95036.00;;;17.60
10598;BMP180;5346;48.766;8.674;2023-02-15T09:32:15;95039.00;;;17.40
10598;BMP180;5346;48.766;8.674;2023-02-15T09:34:46;95028.00;;;17.90
10598;BMP180;5346;48.766;8.674;2023-02-15T09:37:22;95035.00;;;17.70
10598;BMP180;5346;48.766;8.674;2023-02-15T09:39:55;95029.00;;;18.50
10598;BMP180;5346;48.766;8.674;2023-02-15T09:42:43;95031.00;;;19.20
10598;BMP180;5346;48.766;8.674;2023-02-15T09:48:41;95029.00;;;19.60
10598;BMP180;5346;48.766;8.674;2023-02-15T09:57:20;95033.00;;;18.50
10598;BMP180;5346;48.766;8.674;2023-02-15T10:12:53;95036.00;;;19.10
10598;BMP180;5346;48.766;8.674;2023-02-15T10:15:52;95033.00;;;19.20
10598;BMP180;5346;48.766;8.674;2023-02-15T10:18:42;95029.00;;;19.20
10598;BMP180;5346;48.766;8.674;2023-02-15T10:21:50;95023.00;;;19.40
10598;BMP180;5346;48.766;8.674;2023-02-15T10:24:58;95026.00;;;19.90
10598;BMP180;5346;48.766;8.674;2023-02-15T10:27:33;95029.00;;;19.70
10598;BMP180;5346;48.766;8.674;2023-02-15T10:30:18;95026.00;;;20.10
10598;BMP180;5346;48.766;8.674;2023-02-15T10:33:11;95026.00;;;20.60
10598;BMP180;5346;48.766;8.674;2023-02-15T10:36:11;95034.00;;;20.90
10598;BMP180;5346;48.766;8.674;2023-02-15T10:41:51;95033.00;;;19.60
10598;BMP180;5346;48.766;8.674;2023-02-15T10:44:49;95029.00;;;20.30
10598;BMP180;5346;48.766;8.674;2023-02-15T10:50:46;95024.00;;;21.60
10598;BMP180;5346;48.766;8.674;2023-02-15T10:53:49;95021.00;;;20.50
10598;BMP180;5346;48.766;8.674;2023-02-15T10:56:38;95018.00;;;21.30
10598;BMP180;5346;48.766;8.674;2023-02-15T11:02:39;95022.00;;;21.90
10598;BMP180;5346;48.766;8.674;2023-02-15T11:08:13;95024.00;;;21.50
10598;BMP180;5346;48.766;8.674;2023-02-15T11:10:51;95012.00;;;21.00
10598;BMP180;5346;48.766;8.674;2023-02-15T11:13:31;95016.00;;;21.30
10598;BMP180;5346;48.766;8.674;2023-02-15T11:16:14;95019.00;;;21.10
10598;BMP180;5346;48.766;8.674;2023-02-15T11:18:56;95019.00;;;20.60
10598;BMP180;5346;48.766;8.674;2023-02-15T11:21:45;95019.00;;;21.00
10598;BMP180;5346;48.766;8.674;2023-02-15T11:24:18;95017.00;;;20.70
10598;BMP180;5346;48.766;8.674;2023-02-15T11:27:03;95018.00;;;20.20
10598;BMP180;5346;48.766;8.674;2023-02-15T11:29:41;95015.00;;;20.30
10598;BMP180;5346;48.766;8.674;2023-02-15T11:33:14;95016.00;;;20.40
10598;BMP180;5346;48.766;8.674;2023-02-15T11:35:48;95020.00;;;20.30
10598;BMP180;5346;48.766;8.674;2023-02-15T11:38:26;95012.00;;;21.00
10598;BMP180;5346;48.766;8.674;2023-02-15T11:41:19;95010.00;;;21.10
10598;BMP180;5346;48.766;8.674;2023-02-15T11:44:16;95013.00;;;21.40
10598;BMP180;5346;48.766;8.674;2023-02-15T11:46:45;95004.00;;;21.60
10598;BMP180;5346;48.766;8.674;2023-02-15T11:49:32;95008.00;;;21.60
10598;BMP180;5346;48.766;8.674;2023-02-15T11:52:10;94993.00;;;22.10
10598;BMP180;5346;48.766;8.674;2023-02-15T11:54:50;95001.00;;;22.50
10598;BMP180;5346;48.766;8.674;2023-02-15T11:57:39;95003.00;;;22.20
10598;BMP180;5346;48.766;8.674;2023-02-15T12:00:37;94992.00;;;22.00
10598;BMP180;5346;48.766;8.674;2023-02-15T12:03:37;94990.00;;;22.50
10598;BMP180;5346;48.766;8.674;2023-02-15T12:06:34;94983.00;;;22.40
10598;BMP180;5346;48.766;8.674;2023-02-15T12:12:23;94987.00;;;22.00
10598;BMP180;5346;48.766;8.674;2023-02-15T12:14:53;94989.00;;;22.30
10598;BMP180;5346;48.766;8.674;2023-02-15T12:17:52;94986.00;;;21.80
10598;BMP180;5346;48.766;8.674;2023-02-15T12:20:33;94985.00;;;22.00
10598;BMP180;5346;48.766;8.674;2023-02-15T12:23:08;94977.00;;;22.20
10598;BMP180;5346;48.766;8.674;2023-02-15T12:25:55;94983.00;;;22.20
10598;BMP180;5346;48.766;8.674;2023-02-15T12:28:36;94990.00;;;22.80
10598;BMP180;5346;48.766;8.674;2023-02-15T12:31:32;94983.00;;;22.00
10598;BMP180;5346;48.766;8.674;2023-02-15T12:34:08;94982.00;;;22.80
10598;BMP180;5346;48.766;8.674;2023-02-15T12:36:46;94982.00;;;22.60
10598;BMP180;5346;48.766;8.674;2023-02-15T12:39:31;94975.00;;;22.70
10598;BMP180;5346;48.766;8.674;2023-02-15T12:42:15;94976.00;;;23.30
10598;BMP180;5346;48.766;8.674;2023-02-15T12:47:31;94974.00;;;23.00
10598;BMP180;5346;48.766;8.674;2023-02-15T12:50:23;94978.00;;;22.80
10598;BMP180;5346;48.766;8.674;2023-02-15T12:53:20;94973.00;;;23.00
10598;BMP180;5346;48.766;8.674;2023-02-15T12:56:05;94971.00;;;22.80
10598;BMP180;5346;48.766;8.674;2023-02-15T12:58:41;94968.00;;;23.10
10598;BMP180;5346;48.766;8.674;2023-02-15T13:01:17;94965.00;;;23.80
10598;BMP180;5346;48.766;8.674;2023-02-15T13:04:04;94968.00;;;24.30
10598;BMP180;5346;48.766;8.674;2023-02-15T13:06:50;94959.00;;;24.00
10598;BMP180;5346;48.766;8.674;2023-02-15T13:12:21;94951.00;;;24.80
10598;BMP180;5346;48.766;8.674;2023-02-15T13:14:57;94949.00;;;25.40
10598;BMP180;5346;48.766;8.674;2023-02-15T13:17:34;94946.00;;;24.90
10598;BMP180;5346;48.766;8.674;2023-02-15T13:20:21;94946.00;;;25.30
10598;BMP180;5346;48.766;8.674;2023-02-15T13:23:03;94947.00;;;24.90
10598;BMP180;5346;48.766;8.674;2023-02-15T13:25:44;94942.00;;;25.20
10598;BMP180;5346;48.766;8.674;2023-02-15T13:28:27;94935.00;;;25.70
10598;BMP180;5346;48.766;8.674;2023-02-15T13:31:31;94938.00;;;25.90
10598;BMP180;5346;48.766;8.674;2023-02-15T13:34:15;94929.00;;;26.40
10598;BMP180;5346;48.766;8.674;2023-02-15T13:37:15;94932.00;;;25.80
10598;BMP180;5346;48.766;8.674;2023-02-15T13:40:12;94936.00;;;25.10
10598;BMP180;5346;48.766;8.674;2023-02-15T13:42:49;94921.00;;;25.70
10598;BMP180;5346;48.766;8.674;2023-02-15T13:45:39;94926.00;;;25.20
10598;BMP180;5346;48.766;8.674;2023-02-15T13:48:31;94921.00;;;25.70
10598;BMP180;5346;48.766;8.674;2023-02-15T13:51:38;94920.00;;;24.90
10598;BMP180;5346;48.766;8.674;2023-02-15T14:00:35;94914.00;;;24.40
10598;BMP180;5346;48.766;8.674;2023-02-15T14:12:17;94912.00;;;24.90
10598;BMP180;5346;48.766;8.674;2023-02-15T14:27:19;94922.00;;;24.40
10598;BMP180;5346;48.766;8.674;2023-02-15T14:29:53;94933.00;;;24.60
10598;BMP180;5346;48.766;8.674;2023-02-15T14:32:39;94927.00;;;24.30
10598;BMP180;5346;48.766;8.674;2023-02-15T14:35:16;94931.00;;;24.30
10598;BMP180;5346;48.766;8.674;2023-02-15T14:40:48;94941.00;;;22.90
10598;BMP180;5346;48.766;8.674;2023-02-15T14:43:59;94952.00;;;22.70
10598;BMP180;5346;48.766;8.674;2023-02-15T14:49:54;94948.00;;;22.40
10598;BMP180;5346;48.766;8.674;2023-02-15T14:52:21;94939.00;;;22.50
10598;BMP180;5346;48.766;8.674;2023-02-15T14:54:57;94953.00;;;22.50
10598;BMP180;5346;48.766;8.674;2023-02-15T14:57:27;94962.00;;;22.10
10598;BMP180;5346;48.766;8.674;2023-02-15T15:00:31;94948.00;;;20.90
10598;BMP180;5346;48.766;8.674;2023-02-15T15:03:11;94952.00;;;20.40
10598;BMP180;5346;48.766;8.674;2023-02-15T15:05:54;94948.00;;;19.80
10598;BMP180;5346;48.766;8.674;2023-02-15T15:08:43;94945.00;;;19.30
10598;BMP180;5346;48.766;8.674;2023-02-15T15:11:49;94941.00;;;19.50
10598;BMP180;5346;48.766;8.674;2023-02-15T15:17:15;94953.00;;;19.10
10598;BMP180;5346;48.766;8.674;2023-02-15T15:23:41;94963.00;;;18.30
10598;BMP180;5346;48.766;8.674;2023-02-15T15:26:25;94959.00;;;17.80
10598;BMP180;5346;48.766;8.674;2023-02-15T15:29:01;94973.00;;;17.50
10598;BMP180;5346;48.766;8.674;2023-02-15T15:48:40;94977.00;;;13.80
10598;BMP180;5346;48.766;8.674;2023-02-15T15:51:31;94979.00;;;12.30
10598;BMP180;5346;48.766;8.674;2023-02-15T15:54:25;94978.00;;;11.30
10598;BMP180;5346;48.766;8.674;2023-02-15T15:57:02;94987.00;;;10.60
10598;BMP180;5346;48.766;8.674;2023-02-15T15:59:36;94981.00;;;10.20
10598;BMP180;5346;48.766;8.674;2023-02-15T16:02:24;94984.00;;;9.70
10598;BMP180;5346;48.766;8.674;2023-02-15T16:05:09;94980.00;;;9.50
10598;BMP180;5346;48.766;8.674;2023-02-15T16:10:27;94985.00;;;9.10
10598;BMP180;5346;48.766;8.674;2023-02-15T16:13:01;94990.00;;;8.60
10598;BMP180;5346;48.766;8.674;2023-02-15T16:15:44;94989.00;;;8.20
10598;BMP180;5346;48.766;8.674;2023-02-15T16:18:25;94987.00;;;7.80
10598;BMP180;5346;48.766;8.674;2023-02-15T16:21:02;94989.00;;;7.50
10598;BMP180;5346;48.766;8.674;2023-02-15T16:29:41;94995.00;;;6.90
10598;BMP180;5346;48.766;8.674;2023-02-15T16:32:21;94993.00;;;6.70
10598;BMP180;5346;48.766;8.674;2023-02-15T16:35:00;94998.00;;;6.60
10598;BMP180;5346;48.766;8.674;2023-02-15T16:37:35;94992.00;;;6.40
10598;BMP180;5346;48.766;8.674;2023-02-15T16:40:31;94989.00;;;6.20
10598;BMP180;5346;48.766;8.674;2023-02-15T16:43:15;94993.00;;;6.00
10598;BMP180;5346;48.766;8.674;2023-02-15T16:45:46;94990.00;;;5.90
10598;BMP180;5346;48.766;8.674;2023-02-15T16:48:24;94989.00;;;5.80
10598;BMP180;5346;48.766;8.674;2023-02-15T16:50:55;94991.00;;;5.60
10598;BMP180;5346;48.766;8.674;2023-02-15T16:53:31;94996.00;;;5.50
10598;BMP180;5346;48.766;8.674;2023-02-15T16:56:03;95007.00;;;5.50
10598;BMP180;5346;48.766;8.674;2023-02-15T16:58:43;94998.00;;;5.70
10598;BMP180;5346;48.766;8.674;2023-02-15T17:01:13;94999.00;;;5.80
10598;BMP180;5346;48.766;8.674;2023-02-15T17:04:16;94995.00;;;5.80
10598;BMP180;5346;48.766;8.674;2023-02-15T17:07:19;95010.00;;;6.00
10598;BMP180;5346;48.766;8.674;2023-02-15T17:10:00;94998.00;;;5.90
10598;BMP180;5346;48.766;8.674;2023-02-15T17:12:52;95003.00;;;5.50
10598;BMP180;5346;48.766;8.674;2023-02-15T17:15:33;94995.00;;;5.00
10598;BMP180;5346;48.766;8.674;2023-02-15T17:18:11;95002.00;;;4.80
10598;BMP180;5346;48.766;8.674;2023-02-15T17:20:55;95005.00;;;4.90
10598;BMP180;5346;48.766;8.674;2023-02-15T17:26:15;94994.00;;;5.00
10598;BMP180;5346;48.766;8.674;2023-02-15T17:29:31;95002.00;;;5.30
10598;BMP180;5346;48.766;8.674;2023-02-15T17:31:48;94991.00;;;5.20
10598;BMP180;5346;48.766;8.674;2023-02-15T17:40:00;95000.00;;;4.60
10598;BMP180;5346;48.766;8.674;2023-02-15T17:42:39;94991.00;;;4.50
10598;BMP180;5346;48.766;8.674;2023-02-15T17:45:07;95001.00;;;4.40
10598;BMP180;5346;48.766;8.674;2023-02-15T17:47:42;94998.00;;;4.60
10598;BMP180;5346;48.766;8.674;2023-02-15T17:50:21;95003.00;;;4.70
10598;BMP180;5346;48.766;8.674;2023-02-15T17:52:56;95006.00;;;4.60
10598;BMP180;5346;48.766;8.674;2023-02-15T17:55:25;95006.00;;;4.70
10598;BMP180;5346;48.766;8.674;2023-02-15T17:58:11;95013.00;;;4.80
10598;BMP180;5346;48.766;8.674;2023-02-15T18:00:48;94998.00;;;5.00
10598;BMP180;5346;48.766;8.674;2023-02-15T18:03:48;95001.00;;;5.10
10598;BMP180;5346;48.766;8.674;2023-02-15T18:06:38;95005.00;;;4.80
10598;BMP180;5346;48.766;8.674;2023-02-15T18:09:31;95003.00;;;5.00
10598;BMP180;5346;48.766;8.674;2023-02-15T18:12:34;95006.00;;;4.90